Time;durP1;ratioP1;P1;durP2;ratioP2;P2;SDS_P1;SDS_P2;PMS_P1;PMS_P2;Temp;Humidity;BMP_temperature;BMP_pressure;BME280_temperature;BME280_humidity;BME280_pressure;Samples;Min_cycle;Max_cycle;Signal;HPM_P1;HPM_P2
2022/04/22 00:02:22;;;;;;;6.97;3.35;;;;;;;;;;5010453;28;20113;-54
2022/04/22 00:04:48;;;;;;;7.22;3.60;;;;;;;;;;5013577;28;20032;-56
2022/04/22 00:07:14;;;;;;;5.63;2.92;;;;;;;;;;5009308;28;20428;-55
2022/04/22 00:09:40;;;;;;;8.18;4.03;;;;;;;;;;5010713;28;20042;-57
2022/04/22 00:12:07;;;;;;;5.15;3.28;;;;;;;;;;5010015;28;20026;-55
2022/04/22 00:14:33;;;;;;;6.30;3.65;;;;;;;;;;5013423;28;20548;-55
2022/04/22 00:17:00;;;;;;;6.45;2.97;;;;;;;;;;5022774;28;20084;-55
2022/04/22 00:19:27;;;;;;;8.38;3.00;;;;;;;;;;5017610;28;20125;-53
2022/04/22 00:21:53;;;;;;;5.53;3.15;;;;;;;;;;5012987;28;20445;-55
2022/04/22 00:24:20;;;;;;;5.88;3.20;;;;;;;;;;5014191;28;20559;-56
2022/04/22 00:26:46;;;;;;;5.95;3.00;;;;;;;;;;5015257;28;20018;-56
2022/04/22 00:29:12;;;;;;;6.63;3.35;;;;;;;;;;5010494;28;20440;-55
2022/04/22 00:31:38;;;;;;;7.50;3.53;;;;;;;;;;5009383;28;20034;-55
2022/04/22 00:34:04;;;;;;;7.20;3.40;;;;;;;;;;5009560;28;20116;-55
2022/04/22 00:36:30;;;;;;;5.32;3.13;;;;;;;;;;5019618;28;20022;-55
2022/04/22 00:38:56;;;;;;;5.82;3.38;;;;;;;;;;5010519;28;20452;-56
2022/04/22 00:41:22;;;;;;;8.50;4.10;;;;;;;;;;5019891;28;20029;-57
2022/04/22 00:43:50;;;;;;;7.22;3.20;;;;;;;;;;5027334;28;20065;-55
2022/04/22 00:46:16;;;;;;;6.75;3.70;;;;;;;;;;5014447;28;20026;-53
2022/04/22 00:48:42;;;;;;;5.32;3.17;;;;;;;;;;5010775;28;20825;-57
2022/04/22 00:51:09;;;;;;;8.50;3.58;;;;;;;;;;5020446;28;20433;-55
2022/04/22 00:53:36;;;;;;;5.53;3.40;;;;;;;;;;5009456;28;20025;-55
2022/04/22 00:56:03;;;;;;;5.80;3.58;;;;;;;;;;5014046;28;20140;-56
2022/04/22 00:58:29;;;;;;;6.32;3.40;;;;;;;;;;5028062;28;20029;-56
2022/04/22 01:00:55;;;;;;;5.20;3.22;;;;;;;;;;5015387;28;20029;-56
2022/04/22 01:03:22;;;;;;;5.97;3.33;;;;;;;;;;5008383;28;20029;-56
2022/04/22 01:11:31;;;;;;;5.80;3.45;;;;;;;;;;5000266;28;20104;-55
2022/04/22 01:13:57;;;;;;;7.57;4.05;;;;;;;;;;5027608;28;20041;-56
2022/04/22 01:16:23;;;;;;;6.18;3.33;;;;;;;;;;5020622;28;20499;-56
2022/04/22 01:18:49;;;;;;;5.30;3.13;;;;;;;;;;5008800;28;20037;-55
2022/04/22 01:21:15;;;;;;;8.10;3.65;;;;;;;;;;5012779;28;20473;-55
2022/04/22 01:23:41;;;;;;;5.50;3.45;;;;;;;;;;5022496;28;20037;-54
2022/04/22 01:26:08;;;;;;;5.18;3.22;;;;;;;;;;5024163;28;20471;-52
2022/04/22 01:28:34;;;;;;;6.35;3.65;;;;;;;;;;5020170;28;20548;-52
2022/04/22 01:31:00;;;;;;;6.47;3.80;;;;;;;;;;5022634;28;20033;-56
2022/04/22 01:33:27;;;;;;;5.80;3.63;;;;;;;;;;5019672;28;20033;-55
2022/04/22 01:35:52;;;;;;;7.47;3.85;;;;;;;;;;5026759;28;20101;-54
2022/04/22 01:38:19;;;;;;;5.45;3.55;;;;;;;;;;5017151;28;20512;-54
2022/04/22 01:40:45;;;;;;;8.20;3.75;;;;;;;;;;5027531;28;20547;-54
2022/04/22 01:43:11;;;;;;;8.18;3.80;;;;;;;;;;5025301;28;20022;-56
2022/04/22 01:45:37;;;;;;;6.03;3.08;;;;;;;;;;5028476;28;20037;-56
2022/04/22 01:48:03;;;;;;;6.88;3.60;;;;;;;;;;5021535;28;20104;-54
2022/04/22 01:50:29;;;;;;;7.15;3.85;;;;;;;;;;5008599;28;20195;-56
2022/04/22 01:52:55;;;;;;;6.35;2.92;;;;;;;;;;5019658;28;20041;-56
2022/04/22 01:55:22;;;;;;;5.35;3.38;;;;;;;;;;5008505;28;20025;-57
2022/04/22 01:57:48;;;;;;;6.95;3.33;;;;;;;;;;5017265;28;20447;-57
2022/04/22 02:00:14;;;;;;;7.07;3.25;;;;;;;;;;5011211;28;20044;-55
2022/04/22 02:02:40;;;;;;;5.68;3.35;;;;;;;;;;5013078;28;20104;-56
2022/04/22 02:05:07;;;;;;;5.22;3.45;;;;;;;;;;5011950;28;20111;-56
2022/04/22 02:07:33;;;;;;;6.80;3.45;;;;;;;;;;5012444;28;20108;-56
2022/04/22 02:09:59;;;;;;;5.80;3.60;;;;;;;;;;5016130;28;20185;-54
2022/04/22 02:12:25;;;;;;;6.85;3.53;;;;;;;;;;5010054;28;20135;-54
2022/04/22 02:14:51;;;;;;;9.75;3.85;;;;;;;;;;5018660;28;20477;-51
2022/04/22 02:17:18;;;;;;;5.72;3.33;;;;;;;;;;5012268;28;20067;-55
2022/04/22 02:19:44;;;;;;;5.82;3.78;;;;;;;;;;5022668;28;20030;-56
2022/04/22 02:22:11;;;;;;;6.13;3.90;;;;;;;;;;5012668;28;21156;-54
2022/04/22 02:24:37;;;;;;;6.07;3.63;;;;;;;;;;5022918;28;20041;-56
2022/04/22 02:29:48;;;;;;;5.82;3.53;;;;;;;;;;5015002;28;20491;-53
2022/04/22 02:32:14;;;;;;;7.38;3.40;;;;;;;;;;5010802;28;20112;-56
2022/04/22 02:34:40;;;;;;;7.47;3.17;;;;;;;;;;5023856;28;20539;-56
2022/04/22 02:37:06;;;;;;;6.32;3.22;;;;;;;;;;5011261;28;20030;-55
2022/04/22 02:39:32;;;;;;;6.32;3.67;;;;;;;;;;5023844;28;20033;-56
2022/04/22 02:47:28;;;;;;;5.82;3.38;;;;;;;;;;5020153;28;20048;-56
2022/04/22 02:49:54;;;;;;;6.15;3.40;;;;;;;;;;5023337;28;20555;-54
2022/04/22 02:52:20;;;;;;;6.15;3.60;;;;;;;;;;5010800;28;20034;-55
2022/04/22 02:54:46;;;;;;;5.75;3.30;;;;;;;;;;5024813;28;20041;-55
2022/04/22 02:57:12;;;;;;;6.25;3.22;;;;;;;;;;5013607;28;20169;-55
2022/04/22 02:59:39;;;;;;;8.77;4.78;;;;;;;;;;5018197;28;20026;-55
2022/04/22 03:02:08;;;;;;;7.60;3.78;;;;;;;;;;5018441;28;20049;-56
2022/04/22 03:04:34;;;;;;;4.80;2.92;;;;;;;;;;5025104;28;20086;-56
2022/04/22 03:07:00;;;;;;;6.57;3.15;;;;;;;;;;5024035;28;20028;-55
2022/04/22 03:09:26;;;;;;;5.75;3.35;;;;;;;;;;5027144;28;20037;-56
2022/04/22 03:11:53;;;;;;;5.72;3.40;;;;;;;;;;5021384;28;20148;-56
2022/04/22 03:14:19;;;;;;;9.13;3.08;;;;;;;;;;5029139;28;20029;-56
2022/04/22 03:16:45;;;;;;;5.72;3.38;;;;;;;;;;5010618;28;20115;-56
2022/04/22 03:19:11;;;;;;;7.68;4.05;;;;;;;;;;5012143;28;20040;-56
2022/04/22 03:21:38;;;;;;;5.45;3.40;;;;;;;;;;5021746;28;20022;-55
2022/04/22 03:24:04;;;;;;;6.72;3.47;;;;;;;;;;5010816;28;20472;-53
2022/04/22 03:26:30;;;;;;;6.07;3.53;;;;;;;;;;5022523;28;20422;-55
2022/04/22 03:28:57;;;;;;;6.68;3.60;;;;;;;;;;5010216;28;20136;-53
2022/04/22 03:31:23;;;;;;;5.78;3.63;;;;;;;;;;5015121;28;20026;-53
2022/04/22 03:33:50;;;;;;;6.75;3.47;;;;;;;;;;5030155;28;20028;-55
2022/04/22 03:36:16;;;;;;;5.57;3.40;;;;;;;;;;5019320;28;20121;-55
2022/04/22 03:38:43;;;;;;;5.03;3.45;;;;;;;;;;5028782;28;20518;-55
2022/04/22 03:41:10;;;;;;;5.53;3.70;;;;;;;;;;5021179;28;20022;-55
2022/04/22 03:43:36;;;;;;;7.50;4.13;;;;;;;;;;5026941;28;20034;-54
2022/04/22 03:46:02;;;;;;;7.45;3.72;;;;;;;;;;5022755;28;21715;-56
2022/04/22 03:48:28;;;;;;;6.15;3.50;;;;;;;;;;5023309;28;20440;-55
2022/04/22 03:50:54;;;;;;;6.53;3.70;;;;;;;;;;5025866;28;20459;-54
2022/04/22 03:53:20;;;;;;;6.53;3.53;;;;;;;;;;5021606;28;20040;-56
2022/04/22 03:55:46;;;;;;;6.65;3.80;;;;;;;;;;5024654;28;20025;-55
2022/04/22 03:58:16;;;;;;;6.72;3.20;;;;;;;;;;5020862;28;20025;-57
2022/04/22 04:00:42;;;;;;;;;;;;;;;;;;5011731;28;20033;-57
2022/04/22 04:03:09;;;;;;;6.43;4.10;;;;;;;;;;5023617;28;20283;-57
2022/04/22 04:05:36;;;;;;;6.60;3.58;;;;;;;;;;5029152;28;20128;-57
2022/04/22 04:08:02;;;;;;;5.07;3.35;;;;;;;;;;5014778;28;20029;-56
2022/04/22 04:15:57;;;;;;;6.15;4.22;;;;;;;;;;5022921;28;20478;-55
2022/04/22 04:18:24;;;;;;;6.05;3.45;;;;;;;;;;5020874;28;20146;-56
2022/04/22 04:23:35;;;;;;;6.95;3.38;;;;;;;;;;5017532;28;20076;-56
2022/04/22 04:26:01;;;;;;;8.35;4.18;;;;;;;;;;5029219;28;20026;-55
2022/04/22 04:28:27;;;;;;;8.98;4.35;;;;;;;;;;5023026;28;20025;-55
2022/04/22 04:30:54;;;;;;;5.85;3.47;;;;;;;;;;5008095;28;20042;-52
2022/04/22 04:33:21;;;;;;;6.60;4.07;;;;;;;;;;5020808;28;20025;-57
2022/04/22 04:35:47;;;;;;;6.07;3.90;;;;;;;;;;4990054;28;20034;-57
2022/04/22 04:38:15;;;;;;;5.32;3.40;;;;;;;;;;5012951;28;20372;-55
2022/04/22 04:40:41;;;;;;;9.27;3.80;;;;;;;;;;5010298;28;20092;-56
2022/04/22 04:43:07;;;;;;;5.90;3.72;;;;;;;;;;5017853;28;20049;-57
2022/04/22 04:45:35;;;;;;;5.97;3.33;;;;;;;;;;5013301;28;20061;-57
2022/04/22 04:48:01;;;;;;;6.43;3.70;;;;;;;;;;5013828;28;20025;-57
2022/04/22 04:50:29;;;;;;;6.95;3.58;;;;;;;;;;5015131;28;20774;-54
2022/04/22 04:52:55;;;;;;;5.43;3.08;;;;;;;;;;5009231;28;20564;-56
2022/04/22 04:55:21;;;;;;;6.47;3.90;;;;;;;;;;5019817;28;20044;-54
2022/04/22 04:57:48;;;;;;;7.53;4.00;;;;;;;;;;5017875;28;20140;-56
2022/04/22 05:00:14;;;;;;;9.30;4.85;;;;;;;;;;5015073;28;20116;-55
2022/04/22 05:02:40;;;;;;;6.90;4.50;;;;;;;;;;5015123;28;20022;-56
2022/04/22 05:05:07;;;;;;;8.90;4.30;;;;;;;;;;5016964;28;20013;-57
2022/04/22 05:07:33;;;;;;;9.25;4.65;;;;;;;;;;5028476;28;20029;-57
2022/04/22 05:09:59;;;;;;;7.20;4.47;;;;;;;;;;5015963;28;20112;-57
2022/04/22 05:12:25;;;;;;;8.27;4.30;;;;;;;;;;5028205;28;20025;-54
2022/04/22 05:14:52;;;;;;;7.30;4.57;;;;;;;;;;5015122;28;20095;-56
2022/04/22 05:17:18;;;;;;;11.07;5.22;;;;;;;;;;5028333;28;20053;-57
2022/04/22 05:19:44;;;;;;;12.38;7.55;;;;;;;;;;5026927;28;20040;-57
2022/04/22 05:22:10;;;;;;;11.15;6.85;;;;;;;;;;5028427;28;20026;-56
2022/04/22 05:24:37;;;;;;;12.73;6.97;;;;;;;;;;5024248;28;20627;-55
2022/04/22 05:27:04;;;;;;;11.25;7.15;;;;;;;;;;5012095;28;20034;-53
2022/04/22 05:34:59;;;;;;;9.88;6.65;;;;;;;;;;5019884;28;20028;-56
2022/04/22 05:37:25;;;;;;;16.23;8.10;;;;;;;;;;5011377;28;20030;-56
2022/04/22 05:39:51;;;;;;;10.15;7.55;;;;;;;;;;5013355;28;20831;-56
2022/04/22 05:42:17;;;;;;;10.95;7.50;;;;;;;;;;5014739;28;20127;-53
2022/04/22 05:44:43;;;;;;;10.75;7.57;;;;;;;;;;5019434;28;20026;-56
2022/04/22 05:47:09;;;;;;;9.65;7.40;;;;;;;;;;5009994;28;20160;-53
2022/04/22 05:49:35;;;;;;;12.20;7.32;;;;;;;;;;5013077;28;20148;-52
2022/04/22 05:52:01;;;;;;;10.38;7.20;;;;;;;;;;5015477;28;20230;-53
2022/04/22 05:54:27;;;;;;;11.00;8.07;;;;;;;;;;5016566;28;20487;-57
2022/04/22 05:56:53;;;;;;;13.68;7.63;;;;;;;;;;5018705;28;20026;-48
2022/04/22 05:59:19;;;;;;;11.05;8.00;;;;;;;;;;5013297;28;22659;-56
2022/04/22 06:01:45;;;;;;;10.70;7.53;;;;;;;;;;5014164;28;20130;-54
2022/04/22 06:04:11;;;;;;;11.73;8.70;;;;;;;;;;5013848;28;20760;-55
2022/04/22 06:06:37;;;;;;;11.93;8.35;;;;;;;;;;5014466;28;20108;-55
2022/04/22 06:11:48;;;;;;;12.15;8.93;;;;;;;;;;5014309;28;20111;-56
2022/04/22 06:14:15;;;;;;;11.43;7.95;;;;;;;;;;5010069;28;20037;-55
2022/04/22 06:16:41;;;;;;;10.65;8.25;;;;;;;;;;5022579;28;20517;-57
2022/04/22 06:19:07;;;;;;;10.57;8.05;;;;;;;;;;5019323;28;20455;-57
2022/04/22 06:21:33;;;;;;;11.05;7.63;;;;;;;;;;5015060;28;20053;-56
2022/04/22 06:23:59;;;;;;;14.85;8.00;;;;;;;;;;5021646;28;20345;-56
2022/04/22 06:26:26;;;;;;;11.65;7.65;;;;;;;;;;5022436;28;20029;-54
2022/04/22 06:28:52;;;;;;;13.38;8.90;;;;;;;;;;5021218;28;20037;-54
2022/04/22 06:31:18;;;;;;;11.48;7.55;;;;;;;;;;5021300;28;20894;-53
2022/04/22 06:33:44;;;;;;;12.38;7.15;;;;;;;;;;5017470;28;20463;-56
2022/04/22 06:36:13;;;;;;;9.05;6.00;;;;;;;;;;5020610;28;20024;-54
2022/04/22 06:38:40;;;;;;;10.18;6.78;;;;;;;;;;5023789;28;20029;-52
2022/04/22 06:46:35;;;;;;;12.95;6.68;;;;;;;;;;5014181;28;20075;-55
2022/04/22 06:49:04;;;;;;;13.60;6.68;;;;;;;;;;5018692;28;20073;-53
2022/04/22 06:51:30;;;;;;;17.00;11.30;;;;;;;;;;5028288;28;20488;-55
2022/04/22 06:53:56;;;;;;;18.10;13.23;;;;;;;;;;5018783;28;20093;-55
2022/04/22 06:56:26;;;;;;;18.60;12.43;;;;;;;;;;5028331;28;20040;-56
2022/04/22 06:58:52;;;;;;;;;;;;;;;;;;5020873;28;20034;-56
2022/04/22 07:01:19;;;;;;;16.95;10.23;;;;;;;;;;5016047;28;20720;-54
2022/04/22 07:03:45;;;;;;;19.75;11.20;;;;;;;;;;5025382;28;20030;-54
2022/04/22 07:06:12;;;;;;;19.27;11.68;;;;;;;;;;5018894;28;20022;-55
2022/04/22 07:08:46;;;;;;;17.30;11.13;;;;;;;;;;5024912;28;20899;-55
2022/04/22 07:11:14;;;;;;;16.67;10.80;;;;;;;;;;5020556;28;20033;-56
2022/04/22 07:13:43;;;;;;;14.75;10.43;;;;;;;;;;5022778;28;20109;-52
2022/04/22 07:16:10;;;;;;;13.32;10.13;;;;;;;;;;5014279;28;20153;-55
2022/04/22 07:18:36;;;;;;;14.93;10.88;;;;;;;;;;5017355;28;20033;-51
2022/04/22 07:21:02;;;;;;;15.82;9.18;;;;;;;;;;5022900;28;20105;-54
2022/04/22 07:23:28;;;;;;;29.52;10.82;;;;;;;;;;5018943;28;20117;-55
2022/04/22 07:25:56;;;;;;;23.25;11.13;;;;;;;;;;5022105;28;20026;-53
2022/04/22 07:28:22;;;;;;;25.63;17.25;;;;;;;;;;5010114;28;20125;-55
2022/04/22 07:30:50;;;;;;;24.02;15.40;;;;;;;;;;5014814;28;20572;-53
2022/04/22 07:33:16;;;;;;;25.05;14.38;;;;;;;;;;5014464;28;20114;-54
2022/04/22 07:35:42;;;;;;;19.27;11.70;;;;;;;;;;5016108;28;20026;-56
2022/04/22 07:38:10;;;;;;;29.75;12.45;;;;;;;;;;5013596;28;20116;-54
2022/04/22 07:40:37;;;;;;;24.92;11.65;;;;;;;;;;5017462;28;20051;-56
2022/04/22 07:48:35;;;;;;;19.13;9.68;;;;;;;;;;5011243;28;20099;-56
2022/04/22 07:51:01;;;;;;;17.67;10.25;;;;;;;;;;5020374;28;20152;-54
2022/04/22 07:53:27;;;;;;;21.83;9.82;;;;;;;;;;5011431;28;20155;-53
2022/04/22 07:55:53;;;;;;;17.95;9.35;;;;;;;;;;5020302;28;20444;-53
2022/04/22 07:58:19;;;;;;;16.13;9.23;;;;;;;;;;5009849;28;20037;-53
2022/04/22 08:00:46;;;;;;;18.33;8.90;;;;;;;;;;5017303;28;20112;-56
2022/04/22 08:03:12;;;;;;;19.77;9.50;;;;;;;;;;5019958;28;20026;-55
2022/04/22 08:05:38;;;;;;;16.52;9.90;;;;;;;;;;5021715;28;20029;-53
2022/04/22 08:08:06;;;;;;;17.38;9.07;;;;;;;;;;5009491;28;20026;-56
2022/04/22 08:10:32;;;;;;;14.98;8.98;;;;;;;;;;5021112;28;20646;-54
2022/04/22 08:12:58;;;;;;;19.42;8.90;;;;;;;;;;5009379;28;20136;-56
2022/04/22 08:15:24;;;;;;;16.13;9.32;;;;;;;;;;5019062;28;20033;-55
2022/04/22 08:17:50;;;;;;;20.70;9.40;;;;;;;;;;5012238;28;20057;-55
2022/04/22 08:20:18;;;;;;;17.75;8.93;;;;;;;;;;5013612;28;20026;-55
2022/04/22 08:22:44;;;;;;;17.70;8.98;;;;;;;;;;5024187;28;20018;-56
2022/04/22 08:25:10;;;;;;;18.80;8.50;;;;;;;;;;5024440;28;20045;-55
2022/04/22 08:27:36;;;;;;;13.20;8.30;;;;;;;;;;5021294;28;20039;-54
2022/04/22 08:30:03;;;;;;;15.00;8.40;;;;;;;;;;5026780;28;20025;-51
2022/04/22 08:32:29;;;;;;;12.88;7.40;;;;;;;;;;5019347;28;20145;-55
2022/04/22 08:34:54;;;;;;;13.05;8.00;;;;;;;;;;5027331;28;20022;-55
2022/04/22 08:37:21;;;;;;;11.35;7.72;;;;;;;;;;5017660;28;20088;-56
2022/04/22 08:39:47;;;;;;;16.00;8.52;;;;;;;;;;5028479;28;20033;-55
2022/04/22 08:42:14;;;;;;;14.75;8.70;;;;;;;;;;5018152;28;20120;-54
2022/04/22 08:44:41;;;;;;;11.48;7.43;;;;;;;;;;5029173;28;20032;-54
2022/04/22 08:49:58;;;;;;;12.50;6.90;;;;;;;;;;5009122;28;20048;-55
2022/04/22 08:52:25;;;;;;;11.32;6.43;;;;;;;;;;5013226;28;20075;-55
2022/04/22 08:54:53;;;;;;;12.40;7.60;;;;;;;;;;5029205;28;20017;-55
2022/04/22 08:57:19;;;;;;;13.55;6.78;;;;;;;;;;5015925;28;20500;-55
2022/04/22 08:59:46;;;;;;;11.77;7.28;;;;;;;;;;5028999;28;20029;-54
2022/04/22 09:02:15;;;;;;;11.27;7.05;;;;;;;;;;5023473;28;20036;-53
2022/04/22 09:04:41;;;;;;;14.03;6.83;;;;;;;;;;5008990;28;20647;-54
2022/04/22 09:07:13;;;;;;;14.25;7.10;;;;;;;;;;5017906;28;20460;-53
2022/04/22 09:09:40;;;;;;;10.02;6.50;;;;;;;;;;5010805;28;20069;-54
2022/04/22 09:12:10;;;;;;;11.32;7.07;;;;;;;;;;5015797;28;20036;-54
2022/04/22 09:14:36;;;;;;;;;;;;;;;;;;5013180;28;20052;-54
2022/04/22 09:17:03;;;;;;;11.32;6.65;;;;;;;;;;5013711;28;19920;-55
2022/04/22 09:19:38;;;;;;;11.35;6.65;;;;;;;;;;5015189;28;20702;-56
2022/04/22 09:22:04;;;;;;;10.75;6.93;;;;;;;;;;5013152;28;20045;-56
2022/04/22 09:24:30;;;;;;;10.32;6.95;;;;;;;;;;5015842;28;20064;-57
2022/04/22 09:27:08;;;;;;;9.75;6.63;;;;;;;;;;5010521;28;20026;-56
2022/04/22 09:29:44;;;;;;;11.25;7.03;;;;;;;;;;5016821;28;20042;-55
2022/04/22 09:32:11;;;;;;;11.07;6.90;;;;;;;;;;5010775;28;20029;-55
2022/04/22 09:34:39;;;;;;;11.25;5.90;;;;;;;;;;5018336;28;20531;-54
2022/04/22 09:43:00;;;;;;;7.88;5.18;;;;;;;;;;5024044;28;20033;-56
2022/04/22 09:45:37;;;;;;;8.05;5.60;;;;;;;;;;5013877;28;20034;-55
2022/04/22 09:48:12;;;;;;;10.70;6.13;;;;;;;;;;5012589;28;20029;-56
2022/04/22 09:50:44;;;;;;;8.43;5.72;;;;;;;;;;5023227;28;20042;-54
2022/04/22 09:53:10;;;;;;;9.27;5.95;;;;;;;;;;5022867;28;20030;-56
2022/04/22 09:55:52;;;;;;;8.38;5.55;;;;;;;;;;5021027;28;20479;-55
2022/04/22 09:58:22;;;;;;;9.20;5.90;;;;;;;;;;5022922;28;20849;-55
2022/04/22 10:00:51;;;;;;;9.73;6.30;;;;;;;;;;5021344;28;20036;-56
2022/04/22 10:03:17;;;;;;;9.25;5.53;;;;;;;;;;5022358;28;20033;-54
2022/04/22 10:05:45;;;;;;;8.88;5.57;;;;;;;;;;5018590;28;20026;-56
2022/04/22 10:08:11;;;;;;;11.63;5.30;;;;;;;;;;5025324;28;20033;-54
2022/04/22 10:10:39;;;;;;;7.15;5.15;;;;;;;;;;5016426;28;20048;-56
2022/04/22 10:13:06;;;;;;;8.18;5.13;;;;;;;;;;5026226;28;20103;-55
2022/04/22 10:15:37;;;;;;;9.60;5.45;;;;;;;;;;5019091;28;20030;-55
2022/04/22 10:18:04;;;;;;;8.65;5.45;;;;;;;;;;5008544;28;20064;-56
2022/04/22 10:20:32;;;;;;;7.70;4.95;;;;;;;;;;5019372;28;20113;-56
2022/04/22 10:22:58;;;;;;;8.65;5.28;;;;;;;;;;5008439;28;20049;-55
2022/04/22 10:25:25;;;;;;;8.43;5.45;;;;;;;;;;5020356;28;20079;-55
2022/04/22 10:27:52;;;;;;;7.30;5.03;;;;;;;;;;5008261;28;20479;-54
2022/04/22 10:30:20;;;;;;;8.45;5.28;;;;;;;;;;5019732;28;20208;-55
2022/04/22 10:32:48;;;;;;;7.15;4.63;;;;;;;;;;5008342;28;20034;-55
2022/04/22 10:35:14;;;;;;;7.35;5.07;;;;;;;;;;5018552;28;20025;-55
2022/04/22 10:37:41;;;;;;;8.07;4.75;;;;;;;;;;5011889;28;20034;-54
2022/04/22 10:40:28;;;;;;;7.60;5.03;;;;;;;;;;5019128;28;20083;-54
2022/04/22 10:42:59;;;;;;;7.30;4.53;;;;;;;;;;5012086;28;20103;-56
2022/04/22 10:48:21;;;;;;;8.35;4.75;;;;;;;;;;5011563;28;20076;-56
2022/04/22 10:51:00;;;;;;;7.05;4.45;;;;;;;;;;5022107;28;20103;-56
2022/04/22 10:53:27;;;;;;;8.47;5.07;;;;;;;;;;4991880;28;20089;-54
2022/04/22 10:55:54;;;;;;;7.47;4.70;;;;;;;;;;5016001;28;20541;-53
2022/04/22 10:58:21;;;;;;;8.57;4.47;;;;;;;;;;5012808;28;20017;-56
2022/04/22 11:00:51;;;;;;;6.35;4.53;;;;;;;;;;5019456;28;20025;-56
2022/04/22 11:03:19;;;;;;;8.55;4.57;;;;;;;;;;5021262;28;20052;-55
2022/04/22 11:05:46;;;;;;;10.98;4.85;;;;;;;;;;5023697;28;20077;-56
2022/04/22 11:08:25;;;;;;;7.13;4.57;;;;;;;;;;5024800;28;20515;-56
2022/04/22 11:10:51;;;;;;;6.50;4.43;;;;;;;;;;5024253;28;20042;-55
2022/04/22 11:13:35;;;;;;;7.97;4.43;;;;;;;;;;5023163;28;20442;-56
2022/04/22 11:16:22;;;;;;;7.85;4.88;;;;;;;;;;5003960;28;20030;-55
2022/04/22 11:19:08;;;;;;;8.23;4.75;;;;;;;;;;5010786;28;20037;-56
2022/04/22 11:21:35;;;;;;;9.73;5.03;;;;;;;;;;5018835;28;20496;-55
2022/04/22 11:24:09;;;;;;;9.82;5.03;;;;;;;;;;5030430;28;20026;-56
2022/04/22 11:26:35;;;;;;;11.20;4.35;;;;;;;;;;5026675;28;20028;-54
2022/04/22 11:29:02;;;;;;;8.52;5.10;;;;;;;;;;5014615;28;20063;-55
2022/04/22 11:31:29;;;;;;;11.43;5.00;;;;;;;;;;5015565;28;20116;-54
2022/04/22 11:34:05;;;;;;;12.52;4.82;;;;;;;;;;5016977;28;20030;-55
2022/04/22 11:36:31;;;;;;;9.75;4.78;;;;;;;;;;5011462;28;20084;-56
2022/04/22 11:38:57;;;;;;;13.68;4.88;;;;;;;;;;5021390;28;20094;-55
2022/04/22 11:41:23;;;;;;;16.35;9.55;;;;;;;;;;5028352;28;20029;-55
2022/04/22 11:43:49;;;;;;;8.15;5.07;;;;;;;;;;5029549;28;20033;-53
2022/04/22 11:46:17;;;;;;;10.98;4.82;;;;;;;;;;5027108;28;20046;-55
2022/04/22 11:48:46;;;;;;;10.38;4.97;;;;;;;;;;5020900;28;20038;-52
2022/04/22 11:51:12;;;;;;;9.40;4.50;;;;;;;;;;5015969;28;20041;-56
2022/04/22 11:53:44;;;;;;;8.40;4.43;;;;;;;;;;5022731;28;20029;-52
2022/04/22 11:56:10;;;;;;;9.95;4.55;;;;;;;;;;5020464;28;20771;-53
2022/04/22 11:58:36;;;;;;;12.50;4.32;;;;;;;;;;5023418;28;20502;-55
2022/04/22 12:06:39;;;;;;;8.10;4.00;;;;;;;;;;5017996;28;20545;-54
2022/04/22 12:09:06;;;;;;;8.93;3.95;;;;;;;;;;5022697;28;20091;-56
2022/04/22 12:11:38;;;;;;;6.05;3.53;;;;;;;;;;5018594;28;20538;-54
2022/04/22 12:14:04;;;;;;;6.35;4.32;;;;;;;;;;5028331;28;20112;-54
2022/04/22 12:16:32;;;;;;;7.43;3.90;;;;;;;;;;5015877;28;20137;-55
2022/04/22 12:19:00;;;;;;;8.43;3.83;;;;;;;;;;5022896;28;20033;-56
2022/04/22 12:21:27;;;;;;;10.35;4.40;;;;;;;;;;5020776;28;20036;-54
2022/04/22 12:24:00;;;;;;;10.32;4.68;;;;;;;;;;5022912;28;20670;-53
2022/04/22 12:26:26;;;;;;;9.93;4.72;;;;;;;;;;5018084;28;20042;-54
2022/04/22 12:28:56;;;;;;;8.02;3.80;;;;;;;;;;5019227;28;20030;-54
2022/04/22 12:31:23;;;;;;;7.47;4.60;;;;;;;;;;5014925;28;20549;-54
2022/04/22 12:34:05;;;;;;;6.35;4.22;;;;;;;;;;5018520;28;20472;-53
2022/04/22 12:36:36;;;;;;;10.57;3.92;;;;;;;;;;5018860;28;20073;-54
2022/04/22 12:39:04;;;;;;;7.72;4.18;;;;;;;;;;5020921;28;20032;-51
2022/04/22 12:41:33;;;;;;;7.15;4.10;;;;;;;;;;5020127;28;20029;-56
2022/04/22 12:43:59;;;;;;;11.00;5.23;;;;;;;;;;5022117;28;20035;-52
2022/04/22 12:52:09;;;;;;;8.65;4.40;;;;;;;;;;5016713;28;20087;-54
2022/04/22 12:54:35;;;;;;;8.48;4.28;;;;;;;;;;5013328;28;20057;-54
2022/04/22 12:57:01;;;;;;;8.40;4.15;;;;;;;;;;5014569;28;20148;-54
2022/04/22 12:59:43;;;;;;;15.55;4.43;;;;;;;;;;5012371;28;20042;-56
2022/04/22 13:02:10;;;;;;;8.55;4.13;;;;;;;;;;5009695;28;20029;-55
2022/04/22 13:04:49;;;;;;;7.53;4.30;;;;;;;;;;5009268;28;20029;-55
2022/04/22 13:07:15;;;;;;;8.45;4.75;;;;;;;;;;5013346;28;20044;-54
2022/04/22 13:09:41;;;;;;;8.38;4.05;;;;;;;;;;5011030;28;20056;-55
2022/04/22 13:12:07;;;;;;;15.63;4.60;;;;;;;;;;5010549;28;20033;-54
2022/04/22 13:14:34;;;;;;;9.95;3.83;;;;;;;;;;5012249;28;20499;-54
2022/04/22 13:17:01;;;;;;;10.23;3.85;;;;;;;;;;5015341;28;20148;-55
2022/04/22 13:19:27;;;;;;;11.27;4.35;;;;;;;;;;5011981;28;20030;-55
2022/04/22 13:21:53;;;;;;;11.38;3.72;;;;;;;;;;5014800;28;20037;-52
2022/04/22 13:24:19;;;;;;;13.88;3.80;;;;;;;;;;5016374;28;20032;-54
2022/04/22 13:26:45;;;;;;;8.95;3.67;;;;;;;;;;5007827;28;20101;-53
2022/04/22 13:29:11;;;;;;;11.20;3.85;;;;;;;;;;5011662;28;20052;-55
2022/04/22 13:31:37;;;;;;;8.38;3.20;;;;;;;;;;5012950;28;20145;-54
2022/04/22 13:34:03;;;;;;;6.95;3.47;;;;;;;;;;5005365;28;20083;-52
2022/04/22 13:36:31;;;;;;;9.98;4.18;;;;;;;;;;5006077;28;20029;-55
2022/04/22 13:38:57;;;;;;;8.88;3.65;;;;;;;;;;5014368;28;20149;-55
2022/04/22 13:41:23;;;;;;;8.93;4.47;;;;;;;;;;5011744;28;20026;-52
2022/04/22 13:43:49;;;;;;;9.10;4.32;;;;;;;;;;5007140;28;20037;-53
2022/04/22 13:54:29;;;;;;;8.95;4.07;;;;;;;;;;5007221;28;20703;-55
2022/04/22 13:56:56;;;;;;;10.35;4.30;;;;;;;;;;5011786;28;20467;-55
2022/04/22 13:59:22;;;;;;;6.65;4.07;;;;;;;;;;5010672;28;20033;-54
2022/04/22 14:01:48;;;;;;;13.05;4.03;;;;;;;;;;5011349;28;20081;-54
2022/04/22 14:04:15;;;;;;;7.68;3.17;;;;;;;;;;5012909;28;20561;-54
2022/04/22 14:06:42;;;;;;;8.40;3.65;;;;;;;;;;5011213;28;20106;-55
2022/04/22 14:09:09;;;;;;;7.25;4.18;;;;;;;;;;5011184;28;20112;-57
2022/04/22 14:11:35;;;;;;;13.07;3.58;;;;;;;;;;5012978;28;20029;-56
2022/04/22 14:14:01;;;;;;;12.55;4.43;;;;;;;;;;5018391;28;20558;-55
2022/04/22 14:16:28;;;;;;;15.50;3.88;;;;;;;;;;5017548;28;20057;-54
2022/04/22 14:18:53;;;;;;;8.40;4.30;;;;;;;;;;5022458;28;20442;-52
2022/04/22 14:21:19;;;;;;;11.27;4.30;;;;;;;;;;5019638;28;20037;-52
2022/04/22 14:23:45;;;;;;;15.13;4.35;;;;;;;;;;5023392;28;20025;-55
2022/04/22 14:26:13;;;;;;;17.17;4.75;;;;;;;;;;5030875;28;20602;-55
2022/04/22 14:28:39;;;;;;;16.85;4.32;;;;;;;;;;5026889;28;20037;-55
2022/04/22 14:31:06;;;;;;;21.92;4.63;;;;;;;;;;5016807;28;20113;-55
2022/04/22 14:33:32;;;;;;;13.88;4.22;;;;;;;;;;5023823;28;20025;-55
2022/04/22 14:35:58;;;;;;;23.48;4.93;;;;;;;;;;5023034;28;20030;-53
2022/04/22 14:38:24;;;;;;;17.63;3.72;;;;;;;;;;5024812;28;20527;-56
2022/04/22 14:40:51;;;;;;;24.35;4.57;;;;;;;;;;5014857;28;20120;-54
2022/04/22 14:43:17;;;;;;;15.50;3.72;;;;;;;;;;5011565;28;20071;-56
2022/04/22 14:45:43;;;;;;;14.88;3.78;;;;;;;;;;5011524;28;20036;-61
2022/04/22 14:48:10;;;;;;;11.57;3.90;;;;;;;;;;5011285;28;20409;-56
2022/04/22 14:50:36;;;;;;;14.65;3.38;;;;;;;;;;5014196;28;20813;-55
2022/04/22 14:53:02;;;;;;;12.30;3.70;;;;;;;;;;5008951;28;20677;-55
2022/04/22 14:55:28;;;;;;;16.95;3.88;;;;;;;;;;5013256;28;20041;-54
2022/04/22 14:57:54;;;;;;;12.45;4.22;;;;;;;;;;5012067;28;20025;-54
2022/04/22 15:00:20;;;;;;;15.07;3.78;;;;;;;;;;5011953;28;20040;-55
2022/04/22 15:02:46;;;;;;;25.00;4.28;;;;;;;;;;5012531;28;20400;-54
2022/04/22 15:05:14;;;;;;;17.27;3.70;;;;;;;;;;5016995;28;20071;-56
2022/04/22 15:07:40;;;;;;;19.23;3.72;;;;;;;;;;5015079;28;20070;-55
2022/04/22 15:10:06;;;;;;;14.73;3.33;;;;;;;;;;5018425;28;20038;-55
2022/04/22 15:12:33;;;;;;;10.27;3.00;;;;;;;;;;5014093;28;20033;-55
2022/04/22 15:14:59;;;;;;;15.52;3.45;;;;;;;;;;5014158;28;20029;-57
2022/04/22 15:25:41;;;;;;;8.88;2.88;;;;;;;;;;5013971;28;20044;-56
2022/04/22 15:28:07;;;;;;;9.05;3.42;;;;;;;;;;5012882;28;20036;-56
2022/04/22 15:31:03;;;;;;;8.52;2.85;;;;;;;;;;5012687;28;20029;-56
2022/04/22 15:33:29;;;;;;;7.88;2.80;;;;;;;;;;5001522;28;20034;-51
2022/04/22 15:35:55;;;;;;;7.53;2.50;;;;;;;;;;5011506;28;20018;-54
2022/04/22 15:38:22;;;;;;;10.02;3.45;;;;;;;;;;5013476;28;20040;-53
2022/04/22 15:40:49;;;;;;;14.27;4.18;;;;;;;;;;5009097;28;20076;-54
2022/04/22 15:43:15;;;;;;;13.65;4.63;;;;;;;;;;5010617;28;20041;-56
2022/04/22 15:45:41;;;;;;;17.38;4.20;;;;;;;;;;5014208;28;20025;-55
2022/04/22 15:48:07;;;;;;;17.65;4.75;;;;;;;;;;5014073;28;20033;-52
2022/04/22 15:50:36;;;;;;;21.08;5.72;;;;;;;;;;5016190;28;20172;-50
2022/04/22 15:53:03;;;;;;;21.17;5.75;;;;;;;;;;5013510;28;20032;-56
2022/04/22 15:55:29;;;;;;;15.50;4.68;;;;;;;;;;5014897;28;21324;-55
2022/04/22 15:57:55;;;;;;;17.80;4.45;;;;;;;;;;5008360;28;20029;-53
2022/04/22 16:00:21;;;;;;;16.95;4.70;;;;;;;;;;5013712;28;20037;-55